sensor_id;sensor_type;location;lat;lon;timestamp;pressure;altitude;pressure_sealevel;temperature;humidity
6567;BME280;3317;43.994;22.878;2023-02-14T00:00:27;102629.03;;;5.48;61.02
6567;BME280;3317;43.994;22.878;2023-02-14T00:02:54;102626.56;;;5.44;61.22
6567;BME280;3317;43.994;22.878;2023-02-14T00:05:21;102619.59;;;5.40;61.30
6567;BME280;3317;43.994;22.878;2023-02-14T00:07:50;102625.03;;;5.38;61.58
6567;BME280;3317;43.994;22.878;2023-02-14T00:10:17;102621.47;;;5.38;61.32
6567;BME280;3317;43.994;22.878;2023-02-14T00:12:43;102626.13;;;5.34;61.50
6567;BME280;3317;43.994;22.878;2023-02-14T00:15:10;102616.31;;;5.33;61.56
6567;BME280;3317;43.994;22.878;2023-02-14T00:17:50;102622.66;;;5.32;61.87
6567;BME280;3317;43.994;22.878;2023-02-14T00:20:19;102572.22;;;4.99;61.48
6567;BME280;3317;43.994;22.878;2023-02-14T00:22:46;102633.16;;;5.36;61.45
6567;BME280;3317;43.994;22.878;2023-02-14T00:25:14;102635.13;;;5.33;61.20
6567;BME280;3317;43.994;22.878;2023-02-14T00:27:41;102633.16;;;5.36;61.52
6567;BME280;3317;43.994;22.878;2023-02-14T00:30:10;102636.09;;;5.32;61.62
6567;BME280;3317;43.994;22.878;2023-02-14T00:32:38;102608.94;;;5.17;61.59
6567;BME280;3317;43.994;22.878;2023-02-14T00:35:06;102623.50;;;5.32;61.01
6567;BME280;3317;43.994;22.878;2023-02-14T00:37:34;102633.09;;;5.38;61.45
6567;BME280;3317;43.994;22.878;2023-02-14T00:40:01;102635.03;;;5.34;61.71
6567;BME280;3317;43.994;22.878;2023-02-14T00:42:29;102627.72;;;5.38;61.37
6567;BME280;3317;43.994;22.878;2023-02-14T00:44:56;102631.19;;;5.40;61.57
6567;BME280;3317;43.994;22.878;2023-02-14T00:47:23;102629.44;;;5.39;61.40
6567;BME280;3317;43.994;22.878;2023-02-14T00:49:50;102629.19;;;5.45;61.20
6567;BME280;3317;43.994;22.878;2023-02-14T00:52:17;102628.44;;;5.42;61.05
6567;BME280;3317;43.994;22.878;2023-02-14T00:54:44;102623.06;;;5.42;60.93
6567;BME280;3317;43.994;22.878;2023-02-14T00:57:10;102611.44;;;5.41;60.92
6567;BME280;3317;43.994;22.878;2023-02-14T00:59:39;102599.88;;;5.39;61.33
6567;BME280;3317;43.994;22.878;2023-02-14T01:02:06;102602.72;;;5.36;61.59
6567;BME280;3317;43.994;22.878;2023-02-14T01:04:33;102592.19;;;5.31;61.76
6567;BME280;3317;43.994;22.878;2023-02-14T01:07:00;102597.50;;;5.33;62.01
6567;BME280;3317;43.994;22.878;2023-02-14T01:09:27;102593.91;;;5.32;61.77
6567;BME280;3317;43.994;22.878;2023-02-14T01:11:53;102586.00;;;5.29;61.98
6567;BME280;3317;43.994;22.878;2023-02-14T01:14:20;102587.81;;;5.29;62.00
6567;BME280;3317;43.994;22.878;2023-02-14T01:16:48;102580.69;;;5.28;62.08
6567;BME280;3317;43.994;22.878;2023-02-14T01:19:16;102561.81;;;5.29;61.68
6567;BME280;3317;43.994;22.878;2023-02-14T01:21:42;102557.44;;;5.27;62.02
6567;BME280;3317;43.994;22.878;2023-02-14T01:24:11;102567.47;;;5.23;62.13
6567;BME280;3317;43.994;22.878;2023-02-14T01:26:38;102563.13;;;5.20;62.12
6567;BME280;3317;43.994;22.878;2023-02-14T01:29:05;102569.47;;;5.19;62.09
6567;BME280;3317;43.994;22.878;2023-02-14T01:31:34;102566.19;;;5.13;62.22
6567;BME280;3317;43.994;22.878;2023-02-14T01:34:03;102545.91;;;5.05;61.92
6567;BME280;3317;43.994;22.878;2023-02-14T01:36:31;102552.81;;;5.11;62.20
6567;BME280;3317;43.994;22.878;2023-02-14T01:38:59;102560.81;;;5.13;62.36
6567;BME280;3317;43.994;22.878;2023-02-14T01:41:29;102557.41;;;5.09;62.22
6567;BME280;3317;43.994;22.878;2023-02-14T01:43:58;102561.16;;;5.05;62.30
6567;BME280;3317;43.994;22.878;2023-02-14T01:46:27;102552.88;;;5.10;62.21
6567;BME280;3317;43.994;22.878;2023-02-14T01:48:54;102555.50;;;5.11;61.80
6567;BME280;3317;43.994;22.878;2023-02-14T01:51:24;102500.66;;;4.77;61.75
6567;BME280;3317;43.994;22.878;2023-02-14T01:53:52;102561.81;;;5.10;61.78
6567;BME280;3317;43.994;22.878;2023-02-14T01:56:23;102559.13;;;5.10;61.65
6567;BME280;3317;43.994;22.878;2023-02-14T01:58:53;102549.25;;;5.11;61.72
6567;BME280;3317;43.994;22.878;2023-02-14T02:01:22;102562.03;;;5.05;61.73
6567;BME280;3317;43.994;22.878;2023-02-14T02:03:52;102550.28;;;5.08;61.69
6567;BME280;3317;43.994;22.878;2023-02-14T02:06:24;102566.31;;;5.10;61.17
6567;BME280;3317;43.994;22.878;2023-02-14T02:08:59;102567.13;;;5.12;61.18
6567;BME280;3317;43.994;22.878;2023-02-14T02:11:28;102567.19;;;5.10;61.01
6567;BME280;3317;43.994;22.878;2023-02-14T02:13:55;102562.97;;;5.04;61.50
6567;BME280;3317;43.994;22.878;2023-02-14T02:16:34;102547.97;;;5.00;62.01
6567;BME280;3317;43.994;22.878;2023-02-14T02:22:41;102530.22;;;4.96;62.13
6567;BME280;3317;43.994;22.878;2023-02-14T02:25:23;102533.69;;;4.98;61.49
6567;BME280;3317;43.994;22.878;2023-02-14T02:28:16;102527.47;;;4.98;61.33
6567;BME280;3317;43.994;22.878;2023-02-14T02:31:10;102523.19;;;4.93;62.06
6567;BME280;3317;43.994;22.878;2023-02-14T02:34:07;102526.16;;;4.87;61.93
6567;BME280;3317;43.994;22.878;2023-02-14T02:36:51;102528.78;;;4.89;61.85
6567;BME280;3317;43.994;22.878;2023-02-14T02:39:35;102529.00;;;4.84;61.98
6567;BME280;3317;43.994;22.878;2023-02-14T02:42:11;102524.47;;;4.85;62.22
6567;BME280;3317;43.994;22.878;2023-02-14T02:44:47;102528.19;;;4.82;62.19
6567;BME280;3317;43.994;22.878;2023-02-14T02:47:22;102521.22;;;4.78;62.33
6567;BME280;3317;43.994;22.878;2023-02-14T02:49:56;102518.41;;;4.81;62.11
6567;BME280;3317;43.994;22.878;2023-02-14T02:52:47;102510.47;;;4.78;62.22
6567;BME280;3317;43.994;22.878;2023-02-14T02:55:40;102497.03;;;4.78;61.80
6567;BME280;3317;43.994;22.878;2023-02-14T02:58:29;102498.28;;;4.71;62.39
6567;BME280;3317;43.994;22.878;2023-02-14T03:01:01;102502.75;;;4.70;62.30
6567;BME280;3317;43.994;22.878;2023-02-14T03:03:30;102487.44;;;4.72;61.71
6567;BME280;3317;43.994;22.878;2023-02-14T03:06:15;102492.91;;;4.71;62.13
6567;BME280;3317;43.994;22.878;2023-02-14T03:08:43;102486.75;;;4.69;61.68
6567;BME280;3317;43.994;22.878;2023-02-14T03:11:11;102485.22;;;4.63;62.19
6567;BME280;3317;43.994;22.878;2023-02-14T03:14:03;102491.31;;;4.67;62.43
6567;BME280;3317;43.994;22.878;2023-02-14T03:16:38;102479.63;;;4.68;62.09
6567;BME280;3317;43.994;22.878;2023-02-14T03:19:20;102473.44;;;4.65;61.80
6567;BME280;3317;43.994;22.878;2023-02-14T03:22:16;102481.44;;;4.67;61.82
6567;BME280;3317;43.994;22.878;2023-02-14T03:24:55;102475.31;;;4.63;62.01
6567;BME280;3317;43.994;22.878;2023-02-14T03:27:26;102474.47;;;4.63;61.91
6567;BME280;3317;43.994;22.878;2023-02-14T03:30:00;102474.47;;;4.63;62.13
6567;BME280;3317;43.994;22.878;2023-02-14T03:32:33;102469.97;;;4.63;61.85
6567;BME280;3317;43.994;22.878;2023-02-14T03:35:09;102466.25;;;4.66;60.91
6567;BME280;3317;43.994;22.878;2023-02-14T03:37:40;102467.16;;;4.67;61.00
6567;BME280;3317;43.994;22.878;2023-02-14T03:40:16;102459.31;;;4.62;61.46
6567;BME280;3317;43.994;22.878;2023-02-14T03:42:50;102456.69;;;4.60;61.47
6567;BME280;3317;43.994;22.878;2023-02-14T03:45:22;102453.00;;;4.63;61.59
6567;BME280;3317;43.994;22.878;2023-02-14T03:47:53;102454.00;;;4.60;61.33
6567;BME280;3317;43.994;22.878;2023-02-14T03:50:21;102442.72;;;4.52;61.37
6567;BME280;3317;43.994;22.878;2023-02-14T03:52:50;102444.84;;;4.45;61.43
6567;BME280;3317;43.994;22.878;2023-02-14T03:55:26;102459.66;;;4.54;61.49
6567;BME280;3317;43.994;22.878;2023-02-14T03:57:58;102453.19;;;4.58;61.09
6567;BME280;3317;43.994;22.878;2023-02-14T04:00:30;102452.31;;;4.58;61.75
6567;BME280;3317;43.994;22.878;2023-02-14T04:03:01;102449.56;;;4.59;61.50
6567;BME280;3317;43.994;22.878;2023-02-14T04:05:30;102448.94;;;4.54;61.61
6567;BME280;3317;43.994;22.878;2023-02-14T04:07:58;102449.03;;;4.51;61.98
6567;BME280;3317;43.994;22.878;2023-02-14T04:10:27;102447.97;;;4.55;61.62
6567;BME280;3317;43.994;22.878;2023-02-14T04:12:54;102444.41;;;4.55;61.41
6567;BME280;3317;43.994;22.878;2023-02-14T04:15:21;102440.00;;;4.54;61.28
6567;BME280;3317;43.994;22.878;2023-02-14T04:17:47;102446.25;;;4.54;61.36
6567;BME280;3317;43.994;22.878;2023-02-14T04:20:32;102448.03;;;4.54;61.20
6567;BME280;3317;43.994;22.878;2023-02-14T04:22:59;102448.03;;;4.54;61.47
6567;BME280;3317;43.994;22.878;2023-02-14T04:25:28;102461.25;;;4.58;61.28
6567;BME280;3317;43.994;22.878;2023-02-14T04:27:55;102450.94;;;4.49;61.63
6567;BME280;3317;43.994;22.878;2023-02-14T04:30:22;102459.78;;;4.51;61.50
6567;BME280;3317;43.994;22.878;2023-02-14T04:32:49;102460.66;;;4.51;61.54
6567;BME280;3317;43.994;22.878;2023-02-14T04:35:16;102456.31;;;4.49;61.88
6567;BME280;3317;43.994;22.878;2023-02-14T04:37:43;102461.69;;;4.49;61.40
6567;BME280;3317;43.994;22.878;2023-02-14T04:40:11;102453.63;;;4.49;61.66
6567;BME280;3317;43.994;22.878;2023-02-14T04:42:42;102447.31;;;4.50;61.36
6567;BME280;3317;43.994;22.878;2023-02-14T04:45:10;102437.44;;;4.50;61.46
6567;BME280;3317;43.994;22.878;2023-02-14T04:47:38;102433.09;;;4.48;61.62
6567;BME280;3317;43.994;22.878;2023-02-14T04:50:06;102434.66;;;4.52;61.43
6567;BME280;3317;43.994;22.878;2023-02-14T04:52:33;102433.09;;;4.48;61.26
6567;BME280;3317;43.994;22.878;2023-02-14T04:55:00;102438.59;;;4.45;61.35
6567;BME280;3317;43.994;22.878;2023-02-14T04:57:26;102438.53;;;4.46;61.39
6567;BME280;3317;43.994;22.878;2023-02-14T04:59:55;102440.34;;;4.46;61.43
6567;BME280;3317;43.994;22.878;2023-02-14T05:02:22;102437.06;;;4.39;61.88
6567;BME280;3317;43.994;22.878;2023-02-14T05:04:49;102444.97;;;4.42;61.78
6567;BME280;3317;43.994;22.878;2023-02-14T05:07:15;102438.81;;;4.40;61.68
6567;BME280;3317;43.994;22.878;2023-02-14T05:09:43;102426.56;;;4.34;61.81
6567;BME280;3317;43.994;22.878;2023-02-14T05:12:10;102434.47;;;4.37;61.85
6567;BME280;3317;43.994;22.878;2023-02-14T05:14:37;102435.56;;;4.33;62.13
6567;BME280;3317;43.994;22.878;2023-02-14T05:17:05;102436.28;;;4.37;61.44
6567;BME280;3317;43.994;22.878;2023-02-14T05:19:32;102435.59;;;4.32;61.78
6567;BME280;3317;43.994;22.878;2023-02-14T05:21:59;102435.75;;;4.29;62.23
6567;BME280;3317;43.994;22.878;2023-02-14T05:24:26;102437.66;;;4.27;62.07
6567;BME280;3317;43.994;22.878;2023-02-14T05:26:53;102441.34;;;4.24;62.23
6567;BME280;3317;43.994;22.878;2023-02-14T05:29:20;102440.47;;;4.23;62.08
6567;BME280;3317;43.994;22.878;2023-02-14T05:31:47;102444.16;;;4.21;61.82
6567;BME280;3317;43.994;22.878;2023-02-14T05:34:15;102446.13;;;4.17;62.42
6567;BME280;3317;43.994;22.878;2023-02-14T05:36:43;102430.75;;;4.21;62.47
6567;BME280;3317;43.994;22.878;2023-02-14T05:39:10;102429.84;;;4.20;62.24
6567;BME280;3317;43.994;22.878;2023-02-14T05:41:39;102443.56;;;4.14;62.43
6567;BME280;3317;43.994;22.878;2023-02-14T05:44:05;102449.00;;;4.13;62.55
6567;BME280;3317;43.994;22.878;2023-02-14T05:46:33;102443.78;;;4.09;62.74
6567;BME280;3317;43.994;22.878;2023-02-14T05:48:59;102438.41;;;4.09;63.93
6567;BME280;3317;43.994;22.878;2023-02-14T05:51:28;102438.25;;;4.13;63.38
6567;BME280;3317;43.994;22.878;2023-02-14T05:53:55;102447.25;;;4.12;63.50
6567;BME280;3317;43.994;22.878;2023-02-14T05:56:24;102457.88;;;4.15;63.03
6567;BME280;3317;43.994;22.878;2023-02-14T05:58:51;102459.63;;;4.16;62.48
6567;BME280;3317;43.994;22.878;2023-02-14T06:01:18;102463.91;;;4.20;63.03
6567;BME280;3317;43.994;22.878;2023-02-14T06:03:45;102468.31;;;4.21;62.82
6567;BME280;3317;43.994;22.878;2023-02-14T06:06:11;102470.84;;;4.24;62.64
6567;BME280;3317;43.994;22.878;2023-02-14T06:08:41;102483.28;;;4.27;62.84
6567;BME280;3317;43.994;22.878;2023-02-14T06:11:08;102477.75;;;4.30;62.51
6567;BME280;3317;43.994;22.878;2023-02-14T06:13:35;102429.19;;;3.96;62.85
6567;BME280;3317;43.994;22.878;2023-02-14T06:16:02;102489.25;;;4.33;62.62
6567;BME280;3317;43.994;22.878;2023-02-14T06:18:29;102485.47;;;4.37;62.64
6567;BME280;3317;43.994;22.878;2023-02-14T06:20:56;102480.84;;;4.41;62.98
6567;BME280;3317;43.994;22.878;2023-02-14T06:23:23;102486.06;;;4.44;62.91
6567;BME280;3317;43.994;22.878;2023-02-14T06:25:51;102483.94;;;4.51;62.69
6567;BME280;3317;43.994;22.878;2023-02-14T06:28:18;102490.84;;;4.57;62.78
6567;BME280;3317;43.994;22.878;2023-02-14T06:30:46;102487.91;;;4.63;62.97
6567;BME280;3317;43.994;22.878;2023-02-14T06:33:13;102483.16;;;4.68;62.65
6567;BME280;3317;43.994;22.878;2023-02-14T06:35:40;102482.91;;;4.74;62.86
6567;BME280;3317;43.994;22.878;2023-02-14T06:38:07;102473.75;;;4.78;62.65
6567;BME280;3317;43.994;22.878;2023-02-14T06:40:34;102472.25;;;4.90;62.53
6567;BME280;3317;43.994;22.878;2023-02-14T06:43:02;102467.63;;;4.94;62.53
6567;BME280;3317;43.994;22.878;2023-02-14T06:45:29;102467.03;;;5.06;62.14
6567;BME280;3317;43.994;22.878;2023-02-14T06:47:56;102465.78;;;5.14;61.64
6567;BME280;3317;43.994;22.878;2023-02-14T06:50:24;102467.22;;;5.21;61.55
6567;BME280;3317;43.994;22.878;2023-02-14T06:52:51;102473.03;;;5.31;61.81
6567;BME280;3317;43.994;22.878;2023-02-14T06:55:18;102461.00;;;5.38;61.63
6567;BME280;3317;43.994;22.878;2023-02-14T06:57:45;102469.56;;;5.46;61.20
6567;BME280;3317;43.994;22.878;2023-02-14T07:00:14;102466.31;;;5.57;61.20
6567;BME280;3317;43.994;22.878;2023-02-14T07:02:41;102474.63;;;5.70;61.47
6567;BME280;3317;43.994;22.878;2023-02-14T07:05:08;102478.56;;;5.81;61.11
6567;BME280;3317;43.994;22.878;2023-02-14T07:07:35;102471.75;;;5.91;61.04
6567;BME280;3317;43.994;22.878;2023-02-14T07:10:02;102458.69;;;6.01;60.68
6567;BME280;3317;43.994;22.878;2023-02-14T07:12:29;102472.34;;;6.15;60.03
6567;BME280;3317;43.994;22.878;2023-02-14T07:14:56;102486.16;;;6.25;60.19
6567;BME280;3317;43.994;22.878;2023-02-14T07:17:24;102475.81;;;6.33;59.62
6567;BME280;3317;43.994;22.878;2023-02-14T07:19:51;102473.16;;;6.50;59.11
6567;BME280;3317;43.994;22.878;2023-02-14T07:22:18;102461.13;;;6.57;59.33
6567;BME280;3317;43.994;22.878;2023-02-14T07:24:45;102463.38;;;6.65;58.83
6567;BME280;3317;43.994;22.878;2023-02-14T07:27:11;102462.69;;;6.77;58.59
6567;BME280;3317;43.994;22.878;2023-02-14T07:29:38;102466.88;;;6.83;57.97
6567;BME280;3317;43.994;22.878;2023-02-14T07:32:05;102470.41;;;6.99;57.54
6567;BME280;3317;43.994;22.878;2023-02-14T07:34:34;102475.38;;;7.07;57.50
6567;BME280;3317;43.994;22.878;2023-02-14T07:37:01;102475.38;;;7.23;57.14
6567;BME280;3317;43.994;22.878;2023-02-14T07:39:28;102466.75;;;7.32;56.86
6567;BME280;3317;43.994;22.878;2023-02-14T07:41:54;102464.19;;;7.45;56.14
6567;BME280;3317;43.994;22.878;2023-02-14T07:44:21;102459.22;;;7.54;55.77
6567;BME280;3317;43.994;22.878;2023-02-14T07:46:48;102452.31;;;7.64;55.07
6567;BME280;3317;43.994;22.878;2023-02-14T07:49:15;102441.91;;;7.72;55.16
6567;BME280;3317;43.994;22.878;2023-02-14T07:51:43;102452.03;;;7.83;54.72
6567;BME280;3317;43.994;22.878;2023-02-14T07:54:10;102446.19;;;7.91;54.82
6567;BME280;3317;43.994;22.878;2023-02-14T07:56:37;102461.03;;;7.98;54.13
6567;BME280;3317;43.994;22.878;2023-02-14T07:59:04;102445.59;;;8.15;54.02
6567;BME280;3317;43.994;22.878;2023-02-14T08:01:31;102465.88;;;8.22;53.60
6567;BME280;3317;43.994;22.878;2023-02-14T08:03:58;102468.19;;;8.28;52.75
6567;BME280;3317;43.994;22.878;2023-02-14T08:06:25;102459.50;;;8.38;52.43
6567;BME280;3317;43.994;22.878;2023-02-14T08:08:53;102457.69;;;8.38;52.09
6567;BME280;3317;43.994;22.878;2023-02-14T08:11:20;102451.88;;;8.44;52.20
6567;BME280;3317;43.994;22.878;2023-02-14T08:14:05;102458.38;;;8.56;52.18
6567;BME280;3317;43.994;22.878;2023-02-14T08:16:32;102456.78;;;8.67;51.80
6567;BME280;3317;43.994;22.878;2023-02-14T08:18:59;102451.00;;;8.73;51.38
6567;BME280;3317;43.994;22.878;2023-02-14T08:21:27;102450.59;;;8.79;51.35
6567;BME280;3317;43.994;22.878;2023-02-14T08:23:55;102445.34;;;8.91;51.48
6567;BME280;3317;43.994;22.878;2023-02-14T08:26:22;102433.47;;;8.93;51.19
6567;BME280;3317;43.994;22.878;2023-02-14T08:28:50;102441.84;;;9.03;50.83
6567;BME280;3317;43.994;22.878;2023-02-14T08:31:22;102442.28;;;9.10;50.58
6567;BME280;3317;43.994;22.878;2023-02-14T08:33:49;102437.66;;;9.12;49.88
6567;BME280;3317;43.994;22.878;2023-02-14T08:36:16;102438.91;;;9.21;49.80
6567;BME280;3317;43.994;22.878;2023-02-14T08:38:43;102434.03;;;9.26;49.18
6567;BME280;3317;43.994;22.878;2023-02-14T08:41:13;102435.25;;;9.35;49.10
6567;BME280;3317;43.994;22.878;2023-02-14T08:43:40;102443.72;;;9.43;49.44
6567;BME280;3317;43.994;22.878;2023-02-14T08:46:08;102426.41;;;9.46;49.28
6567;BME280;3317;43.994;22.878;2023-02-14T08:48:35;102442.44;;;9.62;48.94
6567;BME280;3317;43.994;22.878;2023-02-14T08:51:04;102453.19;;;9.63;48.66
6567;BME280;3317;43.994;22.878;2023-02-14T08:53:31;102456.31;;;9.70;48.21
6567;BME280;3317;43.994;22.878;2023-02-14T08:56:01;102453.31;;;9.75;48.21
6567;BME280;3317;43.994;22.878;2023-02-14T08:58:30;102441.16;;;9.67;47.75
6567;BME280;3317;43.994;22.878;2023-02-14T09:00:57;102442.03;;;9.81;47.94
6567;BME280;3317;43.994;22.878;2023-02-14T09:03:24;102466.75;;;9.89;47.60
6567;BME280;3317;43.994;22.878;2023-02-14T09:05:51;102460.03;;;9.95;47.29
6567;BME280;3317;43.994;22.878;2023-02-14T09:08:18;102453.53;;;9.97;47.46
6567;BME280;3317;43.994;22.878;2023-02-14T09:10:45;102470.88;;;10.08;47.69
6567;BME280;3317;43.994;22.878;2023-02-14T09:13:12;102448.22;;;10.09;47.09
6567;BME280;3317;43.994;22.878;2023-02-14T09:15:41;102455.50;;;10.08;47.70
6567;BME280;3317;43.994;22.878;2023-02-14T09:18:08;102460.47;;;10.14;47.39
6567;BME280;3317;43.994;22.878;2023-02-14T09:20:34;102467.19;;;10.22;47.46
6567;BME280;3317;43.994;22.878;2023-02-14T09:23:01;102466.31;;;10.34;47.37
6567;BME280;3317;43.994;22.878;2023-02-14T09:25:28;102459.16;;;10.33;47.10
6567;BME280;3317;43.994;22.878;2023-02-14T09:27:55;102463.47;;;10.36;46.97
6567;BME280;3317;43.994;22.878;2023-02-14T09:30:22;102460.78;;;10.36;46.83
6567;BME280;3317;43.994;22.878;2023-02-14T09:32:51;102463.97;;;10.42;47.03
6567;BME280;3317;43.994;22.878;2023-02-14T09:35:18;102441.03;;;10.34;46.98
6567;BME280;3317;43.994;22.878;2023-02-14T09:37:45;102462.31;;;10.53;46.53
6567;BME280;3317;43.994;22.878;2023-02-14T09:40:31;102443.97;;;10.56;46.77
6567;BME280;3317;43.994;22.878;2023-02-14T09:43:03;102435.59;;;10.60;46.19
6567;BME280;3317;43.994;22.878;2023-02-14T09:45:32;102447.00;;;10.65;45.94
6567;BME280;3317;43.994;22.878;2023-02-14T09:48:04;102442.84;;;10.72;46.29
6567;BME280;3317;43.994;22.878;2023-02-14T09:50:37;102456.72;;;10.80;46.00
6567;BME280;3317;43.994;22.878;2023-02-14T09:53:12;102439.34;;;10.83;44.96
6567;BME280;3317;43.994;22.878;2023-02-14T09:55:47;102440.63;;;10.90;44.95
6567;BME280;3317;43.994;22.878;2023-02-14T09:58:21;102431.16;;;10.96;45.15
6567;BME280;3317;43.994;22.878;2023-02-14T10:00:55;102383.31;;;10.70;44.80
6567;BME280;3317;43.994;22.878;2023-02-14T10:03:50;102428.34;;;10.97;44.03
6567;BME280;3317;43.994;22.878;2023-02-14T10:06:39;102426.44;;;11.11;44.25
6567;BME280;3317;43.994;22.878;2023-02-14T10:12:00;102431.97;;;11.34;44.29
6567;BME280;3317;43.994;22.878;2023-02-14T10:14:29;102414.78;;;11.33;43.20
6567;BME280;3317;43.994;22.878;2023-02-14T10:17:02;102417.44;;;11.46;42.95
6567;BME280;3317;43.994;22.878;2023-02-14T10:19:37;102408.91;;;11.39;42.67
6567;BME280;3317;43.994;22.878;2023-02-14T10:22:08;102433.41;;;11.62;43.35
6567;BME280;3317;43.994;22.878;2023-02-14T10:24:41;102425.41;;;11.72;42.87
6567;BME280;3317;43.994;22.878;2023-02-14T10:27:14;102429.47;;;11.78;42.86
6567;BME280;3317;43.994;22.878;2023-02-14T10:29:43;102423.31;;;11.87;42.26
6567;BME280;3317;43.994;22.878;2023-02-14T10:32:13;102415.81;;;11.91;42.46
6567;BME280;3317;43.994;22.878;2023-02-14T10:34:46;102367.16;;;11.76;42.89
6567;BME280;3317;43.994;22.878;2023-02-14T10:37:26;102404.47;;;12.08;42.20
6567;BME280;3317;43.994;22.878;2023-02-14T10:40:08;102405.22;;;12.22;43.20
6567;BME280;3317;43.994;22.878;2023-02-14T10:42:50;102392.88;;;12.29;42.99
6567;BME280;3317;43.994;22.878;2023-02-14T10:45:25;102395.97;;;12.36;41.85
6567;BME280;3317;43.994;22.878;2023-02-14T10:48:01;102397.19;;;12.43;41.83
6567;BME280;3317;43.994;22.878;2023-02-14T10:50:38;102393.69;;;12.64;42.94
6567;BME280;3317;43.994;22.878;2023-02-14T10:53:14;102395.03;;;12.70;40.56
6567;BME280;3317;43.994;22.878;2023-02-14T10:55:48;102366.50;;;12.52;40.37
6567;BME280;3317;43.994;22.878;2023-02-14T10:58:20;102378.38;;;12.51;40.21
6567;BME280;3317;43.994;22.878;2023-02-14T11:00:54;102388.00;;;12.56;40.55
6567;BME280;3317;43.994;22.878;2023-02-14T11:03:24;102383.69;;;12.53;40.55
6567;BME280;3317;43.994;22.878;2023-02-14T11:05:54;102388.41;;;12.51;40.58
6567;BME280;3317;43.994;22.878;2023-02-14T11:08:25;102375.44;;;12.43;40.25
6567;BME280;3317;43.994;22.878;2023-02-14T11:10:54;102379.03;;;12.32;40.09
6567;BME280;3317;43.994;22.878;2023-02-14T11:13:30;102366.31;;;12.21;41.01
6567;BME280;3317;43.994;22.878;2023-02-14T11:15:59;102377.81;;;12.25;40.38
6567;BME280;3317;43.994;22.878;2023-02-14T11:18:27;102364.84;;;12.17;40.14
6567;BME280;3317;43.994;22.878;2023-02-14T11:21:07;102358.91;;;12.23;41.42
6567;BME280;3317;43.994;22.878;2023-02-14T11:23:37;102365.94;;;12.26;41.32
6567;BME280;3317;43.994;22.878;2023-02-14T11:26:10;102363.72;;;12.20;40.76
6567;BME280;3317;43.994;22.878;2023-02-14T11:28:48;102351.47;;;12.25;41.24
6567;BME280;3317;43.994;22.878;2023-02-14T11:31:32;102347.28;;;12.21;40.88
6567;BME280;3317;43.994;22.878;2023-02-14T11:34:02;102346.56;;;12.19;41.24
6567;BME280;3317;43.994;22.878;2023-02-14T11:36:39;102343.59;;;12.22;41.27
6567;BME280;3317;43.994;22.878;2023-02-14T11:39:17;102346.56;;;12.19;41.59
6567;BME280;3317;43.994;22.878;2023-02-14T11:41:49;102338.88;;;12.24;42.11
6567;BME280;3317;43.994;22.878;2023-02-14T11:44:18;102333.69;;;12.33;41.08
6567;BME280;3317;43.994;22.878;2023-02-14T11:46:48;102324.16;;;12.38;41.26
6567;BME280;3317;43.994;22.878;2023-02-14T11:49:27;102324.00;;;12.40;40.18
6567;BME280;3317;43.994;22.878;2023-02-14T11:51:57;102324.75;;;12.42;39.73
6567;BME280;3317;43.994;22.878;2023-02-14T11:54:29;102319.31;;;12.42;40.06
6567;BME280;3317;43.994;22.878;2023-02-14T11:57:03;102319.81;;;12.47;40.94
6567;BME280;3317;43.994;22.878;2023-02-14T11:59:36;102305.97;;;12.39;40.91
6567;BME280;3317;43.994;22.878;2023-02-14T12:02:20;102310.66;;;12.48;41.52
6567;BME280;3317;43.994;22.878;2023-02-14T12:04:51;102318.09;;;12.46;40.69
6567;BME280;3317;43.994;22.878;2023-02-14T12:07:23;102316.75;;;12.41;40.36
6567;BME280;3317;43.994;22.878;2023-02-14T12:10:07;102304.13;;;12.39;41.07
6567;BME280;3317;43.994;22.878;2023-02-14T12:12:34;102307.97;;;12.37;41.39
6567;BME280;3317;43.994;22.878;2023-02-14T12:15:27;102315.00;;;12.39;41.75
6567;BME280;3317;43.994;22.878;2023-02-14T12:17:59;102313.41;;;12.37;41.43
6567;BME280;3317;43.994;22.878;2023-02-14T12:20:37;102313.94;;;12.31;41.13
6567;BME280;3317;43.994;22.878;2023-02-14T12:23:14;102306.84;;;12.39;42.69
6567;BME280;3317;43.994;22.878;2023-02-14T12:25:49;102302.78;;;12.34;41.76
6567;BME280;3317;43.994;22.878;2023-02-14T12:28:20;102306.88;;;12.28;41.30
6567;BME280;3317;43.994;22.878;2023-02-14T12:30:48;102314.41;;;12.24;40.98
6567;BME280;3317;43.994;22.878;2023-02-14T12:33:18;102302.34;;;12.17;40.98
6567;BME280;3317;43.994;22.878;2023-02-14T12:35:53;102289.25;;;12.11;41.28
6567;BME280;3317;43.994;22.878;2023-02-14T12:38:29;102254.41;;;11.82;41.37
6567;BME280;3317;43.994;22.878;2023-02-14T12:41:10;102306.78;;;12.07;41.50
6567;BME280;3317;43.994;22.878;2023-02-14T12:43:48;102307.53;;;12.09;41.43
6567;BME280;3317;43.994;22.878;2023-02-14T12:46:28;102305.41;;;12.01;41.48
6567;BME280;3317;43.994;22.878;2023-02-14T12:49:13;102294.91;;;11.96;41.01
6567;BME280;3317;43.994;22.878;2023-02-14T12:51:50;102305.03;;;11.94;40.72
6567;BME280;3317;43.994;22.878;2023-02-14T12:54:34;102300.72;;;11.92;41.05
6567;BME280;3317;43.994;22.878;2023-02-14T12:57:12;102302.31;;;11.94;40.98
6567;BME280;3317;43.994;22.878;2023-02-14T12:59:57;102301.06;;;11.87;40.80
6567;BME280;3317;43.994;22.878;2023-02-14T13:02:50;102292.69;;;11.79;41.12
6567;BME280;3317;43.994;22.878;2023-02-14T13:05:22;102292.69;;;11.67;40.39
6567;BME280;3317;43.994;22.878;2023-02-14T13:08:04;102288.00;;;11.69;40.94
6567;BME280;3317;43.994;22.878;2023-02-14T13:10:49;102236.28;;;11.37;41.07
6567;BME280;3317;43.994;22.878;2023-02-14T13:13:24;102282.31;;;11.61;40.92
6567;BME280;3317;43.994;22.878;2023-02-14T13:16:02;102286.53;;;11.54;40.87
6567;BME280;3317;43.994;22.878;2023-02-14T13:18:41;102286.88;;;11.49;41.13
6567;BME280;3317;43.994;22.878;2023-02-14T13:21:14;102294.41;;;11.46;41.09
6567;BME280;3317;43.994;22.878;2023-02-14T13:23:45;102283.06;;;11.40;41.43
6567;BME280;3317;43.994;22.878;2023-02-14T13:26:16;102221.28;;;10.97;41.29
6567;BME280;3317;43.994;22.878;2023-02-14T13:28:48;102267.50;;;11.31;41.53
6567;BME280;3317;43.994;22.878;2023-02-14T13:31:17;102269.69;;;11.26;40.96
6567;BME280;3317;43.994;22.878;2023-02-14T13:33:48;102273.53;;;11.23;41.21